createdAt,value
2019-03-15T00:02:03.209Z,3.22
2019-03-15T00:13:01.129Z,3.28
2019-03-15T00:23:58.308Z,3.59
2019-03-15T00:34:57.312Z,3.22
2019-03-15T00:45:53.369Z,3.09
2019-03-15T00:56:53.013Z,2.70
2019-03-15T01:07:45.211Z,2.52
2019-03-15T01:18:46.740Z,2.39
2019-03-15T01:29:51.178Z,2.35
2019-03-15T01:40:53.597Z,2.38
2019-03-15T01:51:53.942Z,2.10
2019-03-15T02:02:55.203Z,1.84
2019-03-15T02:13:51.543Z,1.83
2019-03-15T02:24:52.650Z,1.55
2019-03-15T02:35:55.282Z,1.66
2019-03-15T02:46:54.614Z,1.46
2019-03-15T02:57:55.113Z,1.41
2019-03-15T03:08:57.286Z,1.29
2019-03-15T03:19:58.974Z,1.25
2019-03-15T03:30:58.641Z,1.23
2019-03-15T03:41:59.665Z,1.28
2019-03-15T03:52:58.212Z,1.25
2019-03-15T04:03:59.001Z,1.25
2019-03-15T04:14:34.695Z,1.05
2019-03-15T04:25:33.246Z,1.07
2019-03-15T04:36:37.273Z,1.00
2019-03-15T04:47:38.184Z,0.84
2019-03-15T04:58:48.724Z,1.18
2019-03-15T05:09:53.074Z,0.90
2019-03-15T05:20:48.825Z,0.97
2019-03-15T05:31:53.153Z,1.07
2019-03-15T05:42:52.664Z,1.30
2019-03-15T05:53:56.021Z,1.44
2019-03-15T06:05:00.864Z,1.99
2019-03-15T06:15:58.750Z,2.86
2019-03-15T06:27:02.866Z,3.93
2019-03-15T06:38:06.493Z,4.87
2019-03-15T06:49:05.090Z,5.70
2019-03-15T07:00:05.130Z,6.17
2019-03-15T07:11:04.693Z,6.17
2019-03-15T07:22:02.685Z,6.10
2019-03-15T07:33:07.787Z,6.73
2019-03-15T07:44:07.786Z,8.33
2019-03-15T07:55:11.125Z,8.72
2019-03-15T08:06:17.017Z,9.53
2019-03-15T08:17:15.975Z,10.11
2019-03-15T08:28:17.983Z,10.43
2019-03-15T08:39:23.236Z,10.75
2019-03-15T08:50:24.298Z,10.98
2019-03-15T09:01:27.829Z,11.53
2019-03-15T09:12:25.295Z,11.60
2019-03-15T09:23:25.904Z,11.98
2019-03-15T09:34:30.318Z,13.28
2019-03-15T09:45:30.577Z,13.29
2019-03-15T09:56:29.616Z,14.27
2019-03-15T10:07:37.722Z,14.09
2019-03-15T10:18:31.915Z,14.11
2019-03-15T10:29:32.774Z,14.67
2019-03-15T10:40:35.292Z,16.07
2019-03-15T10:51:38.871Z,15.45
2019-03-15T11:02:38.942Z,15.57
2019-03-15T11:13:36.358Z,16.40
2019-03-15T11:24:32.334Z,16.16
2019-03-15T11:35:15.662Z,17.32
2019-03-15T11:46:16.494Z,15.20
2019-03-15T11:57:17.071Z,14.84
2019-03-15T12:08:19.924Z,14.64
2019-03-15T12:19:19.676Z,15.55
2019-03-15T12:30:16.234Z,14.79
2019-03-15T12:41:15.071Z,14.47
2019-03-15T12:52:13.883Z,14.35
2019-03-15T13:03:15.727Z,13.87
2019-03-15T13:14:12.085Z,13.47
2019-03-15T13:25:10.971Z,13.25
2019-03-15T13:36:07.698Z,13.03
2019-03-15T13:47:07.506Z,13.10
2019-03-15T13:58:06.012Z,13.10
2019-03-15T14:09:05.459Z,13.03
2019-03-15T14:20:05.684Z,12.97
2019-03-15T14:31:06.518Z,12.99
2019-03-15T14:42:01.700Z,12.89
2019-03-15T14:53:00.683Z,12.89
2019-03-15T15:04:01.866Z,12.60
2019-03-15T15:14:58.204Z,12.36
2019-03-15T15:25:54.858Z,12.27
2019-03-15T15:36:53.799Z,12.36
2019-03-15T15:47:53.584Z,12.26
2019-03-15T15:58:50.853Z,12.12
2019-03-15T16:09:45.614Z,11.69
2019-03-15T16:20:36.360Z,11.38
2019-03-15T16:31:30.212Z,11.02
2019-03-15T16:42:25.162Z,10.65
2019-03-15T16:53:19.543Z,10.43
2019-03-15T17:04:20.957Z,10.21
2019-03-15T17:15:15.296Z,10.04
2019-03-15T17:26:10.883Z,9.74
2019-03-15T17:37:14.344Z,9.45
2019-03-15T17:47:59.048Z,9.35
2019-03-15T17:59:11.903Z,9.13
2019-03-15T18:10:05.817Z,8.76
2019-03-15T18:21:04.423Z,8.44
2019-03-15T18:32:07.614Z,8.47
2019-03-15T18:43:03.903Z,8.01
2019-03-15T18:53:58.749Z,8.15
2019-03-15T19:04:57.311Z,7.79
2019-03-15T19:15:55.466Z,7.55
2019-03-15T19:26:54.469Z,7.41
2019-03-15T19:37:50.245Z,7.17
2019-03-15T19:48:50.975Z,6.94
2019-03-15T19:59:49.710Z,6.80
2019-03-15T20:10:45.674Z,6.76
2019-03-15T20:21:46.527Z,6.62
2019-03-15T20:32:45.126Z,6.50
2019-03-15T20:43:42.718Z,6.39
2019-03-15T20:54:40.515Z,6.11
2019-03-15T21:05:37.012Z,6.00
2019-03-15T21:16:34.058Z,5.85
2019-03-15T21:27:30.368Z,5.63
2019-03-15T21:38:30.316Z,5.42
2019-03-15T21:49:29.141Z,5.35
2019-03-15T22:00:32.026Z,5.41
2019-03-15T22:11:28.714Z,5.38
2019-03-15T22:22:27.001Z,5.36
2019-03-15T22:33:26.852Z,5.28
2019-03-15T22:44:27.250Z,5.24
2019-03-15T22:55:24.317Z,5.28
2019-03-15T23:06:23.361Z,5.31
2019-03-15T23:17:24.928Z,5.17
2019-03-15T23:28:26.548Z,5.05
2019-03-15T23:39:29.430Z,5.03
2019-03-15T23:50:30.934Z,4.72
